sensor_id;sensor_type;location;lat;lon;timestamp;temperature;humidity
9437;DHT22;4757;59.334;18.034;2022-07-17T00:02:13;14.90;99.90
9437;DHT22;4757;59.334;18.034;2022-07-17T00:04:40;14.80;99.90
9437;DHT22;4757;59.334;18.034;2022-07-17T00:07:06;14.80;99.90
9437;DHT22;4757;59.334;18.034;2022-07-17T00:09:33;14.80;99.90
9437;DHT22;4757;59.334;18.034;2022-07-17T00:12:01;14.80;99.90
9437;DHT22;4757;59.334;18.034;2022-07-17T00:14:30;14.80;99.90
9437;DHT22;4757;59.334;18.034;2022-07-17T00:16:57;14.70;99.90
9437;DHT22;4757;59.334;18.034;2022-07-17T00:19:25;14.70;99.90
9437;DHT22;4757;59.334;18.034;2022-07-17T00:21:52;14.70;99.90
9437;DHT22;4757;59.334;18.034;2022-07-17T00:24:19;14.70;99.90
9437;DHT22;4757;59.334;18.034;2022-07-17T00:26:48;14.70;99.90
9437;DHT22;4757;59.334;18.034;2022-07-17T00:29:15;14.70;99.90
9437;DHT22;4757;59.334;18.034;2022-07-17T00:31:43;14.70;99.90
9437;DHT22;4757;59.334;18.034;2022-07-17T00:34:11;14.70;99.90
9437;DHT22;4757;59.334;18.034;2022-07-17T00:36:38;14.70;99.90
9437;DHT22;4757;59.334;18.034;2022-07-17T00:39:05;14.70;99.90
9437;DHT22;4757;59.334;18.034;2022-07-17T00:41:32;14.70;99.90
9437;DHT22;4757;59.334;18.034;2022-07-17T00:44:08;14.70;99.90
9437;DHT22;4757;59.334;18.034;2022-07-17T00:46:38;14.70;99.90
9437;DHT22;4757;59.334;18.034;2022-07-17T00:49:07;14.70;99.90
9437;DHT22;4757;59.334;18.034;2022-07-17T00:51:34;14.70;99.90
9437;DHT22;4757;59.334;18.034;2022-07-17T00:54:03;14.80;99.90
9437;DHT22;4757;59.334;18.034;2022-07-17T00:56:36;14.80;99.90
9437;DHT22;4757;59.334;18.034;2022-07-17T00:59:04;14.80;99.90
9437;DHT22;4757;59.334;18.034;2022-07-17T01:01:33;14.80;99.90
9437;DHT22;4757;59.334;18.034;2022-07-17T01:04:04;14.80;99.90
9437;DHT22;4757;59.334;18.034;2022-07-17T01:06:31;14.80;99.90
9437;DHT22;4757;59.334;18.034;2022-07-17T01:08:58;14.80;99.90
9437;DHT22;4757;59.334;18.034;2022-07-17T01:11:27;14.80;99.90
9437;DHT22;4757;59.334;18.034;2022-07-17T01:13:54;14.80;99.90
9437;DHT22;4757;59.334;18.034;2022-07-17T01:16:22;14.80;99.90
9437;DHT22;4757;59.334;18.034;2022-07-17T01:18:49;14.80;99.90
9437;DHT22;4757;59.334;18.034;2022-07-17T01:21:16;14.80;99.90
9437;DHT22;4757;59.334;18.034;2022-07-17T01:23:43;14.80;99.90
9437;DHT22;4757;59.334;18.034;2022-07-17T01:26:10;14.80;99.90
9437;DHT22;4757;59.334;18.034;2022-07-17T01:28:37;14.80;99.90
9437;DHT22;4757;59.334;18.034;2022-07-17T01:31:04;14.80;99.90
9437;DHT22;4757;59.334;18.034;2022-07-17T01:33:31;14.70;99.90
9437;DHT22;4757;59.334;18.034;2022-07-17T01:35:58;14.70;99.90
9437;DHT22;4757;59.334;18.034;2022-07-17T01:38:25;14.70;99.90
9437;DHT22;4757;59.334;18.034;2022-07-17T01:40:52;14.60;99.90
9437;DHT22;4757;59.334;18.034;2022-07-17T01:43:20;14.60;99.90
9437;DHT22;4757;59.334;18.034;2022-07-17T01:45:47;14.60;99.90
9437;DHT22;4757;59.334;18.034;2022-07-17T01:48:25;14.60;99.90
9437;DHT22;4757;59.334;18.034;2022-07-17T01:50:53;14.60;99.90
9437;DHT22;4757;59.334;18.034;2022-07-17T01:53:20;14.60;99.90
9437;DHT22;4757;59.334;18.034;2022-07-17T01:55:47;14.50;99.90
9437;DHT22;4757;59.334;18.034;2022-07-17T01:58:15;14.50;99.90
9437;DHT22;4757;59.334;18.034;2022-07-17T02:00:43;14.50;99.90
9437;DHT22;4757;59.334;18.034;2022-07-17T02:03:10;14.50;99.90
9437;DHT22;4757;59.334;18.034;2022-07-17T02:05:37;14.40;99.90
9437;DHT22;4757;59.334;18.034;2022-07-17T02:08:04;14.40;99.90
9437;DHT22;4757;59.334;18.034;2022-07-17T02:10:32;14.40;99.90
9437;DHT22;4757;59.334;18.034;2022-07-17T02:12:59;14.40;99.90
9437;DHT22;4757;59.334;18.034;2022-07-17T02:15:27;14.40;99.90
9437;DHT22;4757;59.334;18.034;2022-07-17T02:17:54;14.40;99.90
9437;DHT22;4757;59.334;18.034;2022-07-17T02:20:21;14.40;99.90
9437;DHT22;4757;59.334;18.034;2022-07-17T02:22:48;14.40;99.90
9437;DHT22;4757;59.334;18.034;2022-07-17T02:25:15;14.40;99.90
9437;DHT22;4757;59.334;18.034;2022-07-17T02:27:43;14.40;99.90
9437;DHT22;4757;59.334;18.034;2022-07-17T02:30:12;14.50;99.90
9437;DHT22;4757;59.334;18.034;2022-07-17T02:32:41;14.40;99.90
9437;DHT22;4757;59.334;18.034;2022-07-17T02:35:10;14.40;99.90
9437;DHT22;4757;59.334;18.034;2022-07-17T02:37:38;14.40;99.90
9437;DHT22;4757;59.334;18.034;2022-07-17T02:40:06;14.40;99.90
9437;DHT22;4757;59.334;18.034;2022-07-17T02:42:33;14.40;99.90
9437;DHT22;4757;59.334;18.034;2022-07-17T02:45:00;14.40;99.90
9437;DHT22;4757;59.334;18.034;2022-07-17T02:47:32;14.40;99.90
9437;DHT22;4757;59.334;18.034;2022-07-17T02:50:00;14.40;99.90
9437;DHT22;4757;59.334;18.034;2022-07-17T02:52:30;14.40;99.90
9437;DHT22;4757;59.334;18.034;2022-07-17T02:54:57;14.40;99.90
9437;DHT22;4757;59.334;18.034;2022-07-17T02:57:25;14.50;99.90
9437;DHT22;4757;59.334;18.034;2022-07-17T02:59:53;14.40;99.90
9437;DHT22;4757;59.334;18.034;2022-07-17T03:02:20;14.40;99.90
9437;DHT22;4757;59.334;18.034;2022-07-17T03:04:47;14.40;99.90
9437;DHT22;4757;59.334;18.034;2022-07-17T03:07:14;14.40;99.90
9437;DHT22;4757;59.334;18.034;2022-07-17T03:09:41;14.40;99.90
9437;DHT22;4757;59.334;18.034;2022-07-17T03:12:08;14.30;99.90
9437;DHT22;4757;59.334;18.034;2022-07-17T03:14:35;14.40;99.90
9437;DHT22;4757;59.334;18.034;2022-07-17T03:17:02;14.40;99.90
9437;DHT22;4757;59.334;18.034;2022-07-17T03:19:30;14.40;99.90
9437;DHT22;4757;59.334;18.034;2022-07-17T03:21:57;14.40;99.90
9437;DHT22;4757;59.334;18.034;2022-07-17T03:24:24;14.40;99.90
9437;DHT22;4757;59.334;18.034;2022-07-17T03:26:53;14.40;99.90
9437;DHT22;4757;59.334;18.034;2022-07-17T03:29:20;14.40;99.90
9437;DHT22;4757;59.334;18.034;2022-07-17T03:31:47;14.40;99.90
9437;DHT22;4757;59.334;18.034;2022-07-17T03:34:14;14.40;99.90
9437;DHT22;4757;59.334;18.034;2022-07-17T03:36:42;14.40;99.90
9437;DHT22;4757;59.334;18.034;2022-07-17T03:39:09;14.40;99.90
9437;DHT22;4757;59.334;18.034;2022-07-17T03:41:36;14.40;99.90
9437;DHT22;4757;59.334;18.034;2022-07-17T03:44:03;14.50;99.90
9437;DHT22;4757;59.334;18.034;2022-07-17T03:46:30;14.50;99.90
9437;DHT22;4757;59.334;18.034;2022-07-17T03:48:57;14.50;99.90
9437;DHT22;4757;59.334;18.034;2022-07-17T03:51:24;14.60;99.90
9437;DHT22;4757;59.334;18.034;2022-07-17T03:53:52;14.60;99.90
9437;DHT22;4757;59.334;18.034;2022-07-17T03:56:19;14.50;99.90
9437;DHT22;4757;59.334;18.034;2022-07-17T03:58:46;14.50;99.90
9437;DHT22;4757;59.334;18.034;2022-07-17T04:01:16;14.50;99.90
9437;DHT22;4757;59.334;18.034;2022-07-17T04:03:43;14.40;99.90
9437;DHT22;4757;59.334;18.034;2022-07-17T04:06:10;14.40;99.90
9437;DHT22;4757;59.334;18.034;2022-07-17T04:08:37;14.50;99.90
9437;DHT22;4757;59.334;18.034;2022-07-17T04:11:04;14.50;99.90
9437;DHT22;4757;59.334;18.034;2022-07-17T04:13:36;14.60;99.90
9437;DHT22;4757;59.334;18.034;2022-07-17T04:16:04;14.50;99.90
9437;DHT22;4757;59.334;18.034;2022-07-17T04:18:34;14.50;99.90
9437;DHT22;4757;59.334;18.034;2022-07-17T04:21:07;14.50;99.90
9437;DHT22;4757;59.334;18.034;2022-07-17T04:23:36;14.50;99.90
9437;DHT22;4757;59.334;18.034;2022-07-17T04:26:04;14.50;99.90
9437;DHT22;4757;59.334;18.034;2022-07-17T04:28:37;14.50;99.90
9437;DHT22;4757;59.334;18.034;2022-07-17T04:31:04;14.50;99.90
9437;DHT22;4757;59.334;18.034;2022-07-17T04:33:31;14.50;99.90
9437;DHT22;4757;59.334;18.034;2022-07-17T04:35:58;14.60;99.90
9437;DHT22;4757;59.334;18.034;2022-07-17T04:38:25;14.70;99.90
9437;DHT22;4757;59.334;18.034;2022-07-17T04:40:52;14.70;99.90
9437;DHT22;4757;59.334;18.034;2022-07-17T04:43:20;14.70;99.90
9437;DHT22;4757;59.334;18.034;2022-07-17T04:45:47;14.70;99.90
9437;DHT22;4757;59.334;18.034;2022-07-17T04:48:14;14.80;99.90
9437;DHT22;4757;59.334;18.034;2022-07-17T04:50:41;14.80;99.90
9437;DHT22;4757;59.334;18.034;2022-07-17T04:53:08;14.90;99.90
9437;DHT22;4757;59.334;18.034;2022-07-17T04:55:35;14.90;99.90
9437;DHT22;4757;59.334;18.034;2022-07-17T04:58:03;14.90;99.90
9437;DHT22;4757;59.334;18.034;2022-07-17T05:00:30;14.90;99.90
9437;DHT22;4757;59.334;18.034;2022-07-17T05:02:57;14.90;99.90
9437;DHT22;4757;59.334;18.034;2022-07-17T05:05:24;14.90;99.90
9437;DHT22;4757;59.334;18.034;2022-07-17T05:07:51;14.80;99.90
9437;DHT22;4757;59.334;18.034;2022-07-17T05:10:18;14.90;99.90
9437;DHT22;4757;59.334;18.034;2022-07-17T05:12:53;14.80;99.90
9437;DHT22;4757;59.334;18.034;2022-07-17T05:15:20;14.90;99.90
9437;DHT22;4757;59.334;18.034;2022-07-17T05:17:47;14.90;99.90
9437;DHT22;4757;59.334;18.034;2022-07-17T05:20:14;14.90;99.90
9437;DHT22;4757;59.334;18.034;2022-07-17T05:22:41;15.00;99.90
9437;DHT22;4757;59.334;18.034;2022-07-17T05:25:08;15.00;99.90
9437;DHT22;4757;59.334;18.034;2022-07-17T05:27:35;14.90;99.90
9437;DHT22;4757;59.334;18.034;2022-07-17T05:30:03;15.10;99.90
9437;DHT22;4757;59.334;18.034;2022-07-17T05:32:31;15.10;99.90
9437;DHT22;4757;59.334;18.034;2022-07-17T05:34:58;15.10;99.90
9437;DHT22;4757;59.334;18.034;2022-07-17T05:37:25;15.10;99.90
9437;DHT22;4757;59.334;18.034;2022-07-17T05:39:52;15.10;99.90
9437;DHT22;4757;59.334;18.034;2022-07-17T05:42:19;15.20;99.90
9437;DHT22;4757;59.334;18.034;2022-07-17T05:44:46;15.20;99.90
9437;DHT22;4757;59.334;18.034;2022-07-17T05:47:13;15.20;99.90
9437;DHT22;4757;59.334;18.034;2022-07-17T05:49:41;15.20;99.90
9437;DHT22;4757;59.334;18.034;2022-07-17T05:52:08;15.10;99.90
9437;DHT22;4757;59.334;18.034;2022-07-17T05:54:34;14.80;99.90
9437;DHT22;4757;59.334;18.034;2022-07-17T05:57:01;15.10;99.90
9437;DHT22;4757;59.334;18.034;2022-07-17T05:59:36;15.10;99.90
9437;DHT22;4757;59.334;18.034;2022-07-17T06:02:03;15.20;99.90
9437;DHT22;4757;59.334;18.034;2022-07-17T06:04:30;15.10;99.90
9437;DHT22;4757;59.334;18.034;2022-07-17T06:06:58;15.00;99.90
9437;DHT22;4757;59.334;18.034;2022-07-17T06:09:25;15.10;99.90
9437;DHT22;4757;59.334;18.034;2022-07-17T06:11:52;15.30;99.90
9437;DHT22;4757;59.334;18.034;2022-07-17T06:14:19;15.30;99.90
9437;DHT22;4757;59.334;18.034;2022-07-17T06:16:46;15.40;99.90
9437;DHT22;4757;59.334;18.034;2022-07-17T06:19:13;15.40;99.90
9437;DHT22;4757;59.334;18.034;2022-07-17T06:21:40;15.50;99.90
9437;DHT22;4757;59.334;18.034;2022-07-17T06:24:07;15.50;99.90
9437;DHT22;4757;59.334;18.034;2022-07-17T06:26:34;15.50;99.90
9437;DHT22;4757;59.334;18.034;2022-07-17T06:29:01;15.60;99.90
9437;DHT22;4757;59.334;18.034;2022-07-17T06:31:28;15.60;99.90
9437;DHT22;4757;59.334;18.034;2022-07-17T06:33:55;15.50;99.90
9437;DHT22;4757;59.334;18.034;2022-07-17T06:36:22;15.50;99.90
9437;DHT22;4757;59.334;18.034;2022-07-17T06:38:54;15.30;99.90
9437;DHT22;4757;59.334;18.034;2022-07-17T06:41:21;15.50;99.90
9437;DHT22;4757;59.334;18.034;2022-07-17T06:43:48;15.70;99.90
9437;DHT22;4757;59.334;18.034;2022-07-17T06:46:15;15.60;99.90
9437;DHT22;4757;59.334;18.034;2022-07-17T06:48:51;15.60;99.90
9437;DHT22;4757;59.334;18.034;2022-07-17T06:51:18;15.80;99.90
9437;DHT22;4757;59.334;18.034;2022-07-17T06:53:45;15.90;99.90
9437;DHT22;4757;59.334;18.034;2022-07-17T06:56:12;15.80;99.90
9437;DHT22;4757;59.334;18.034;2022-07-17T06:58:39;16.00;99.90
9437;DHT22;4757;59.334;18.034;2022-07-17T07:01:07;16.20;99.90
9437;DHT22;4757;59.334;18.034;2022-07-17T07:03:34;16.50;99.90
9437;DHT22;4757;59.334;18.034;2022-07-17T07:06:04;16.60;99.90
9437;DHT22;4757;59.334;18.034;2022-07-17T07:08:33;17.00;99.90
9437;DHT22;4757;59.334;18.034;2022-07-17T07:11:01;17.10;99.90
9437;DHT22;4757;59.334;18.034;2022-07-17T07:13:29;17.20;99.90
9437;DHT22;4757;59.334;18.034;2022-07-17T07:15:56;17.40;99.90
9437;DHT22;4757;59.334;18.034;2022-07-17T07:18:23;17.70;99.90
9437;DHT22;4757;59.334;18.034;2022-07-17T07:20:50;18.20;99.90
9437;DHT22;4757;59.334;18.034;2022-07-17T07:23:17;18.30;99.90
9437;DHT22;4757;59.334;18.034;2022-07-17T07:25:44;18.60;99.90
9437;DHT22;4757;59.334;18.034;2022-07-17T07:28:11;18.60;99.90
9437;DHT22;4757;59.334;18.034;2022-07-17T07:30:41;18.50;99.90
9437;DHT22;4757;59.334;18.034;2022-07-17T07:33:35;18.80;99.90
9437;DHT22;4757;59.334;18.034;2022-07-17T07:36:25;19.10;99.90
9437;DHT22;4757;59.334;18.034;2022-07-17T07:39:25;19.30;99.90
9437;DHT22;4757;59.334;18.034;2022-07-17T07:41:53;19.40;99.90
9437;DHT22;4757;59.334;18.034;2022-07-17T07:44:20;19.60;99.90
9437;DHT22;4757;59.334;18.034;2022-07-17T07:46:57;20.00;99.90
9437;DHT22;4757;59.334;18.034;2022-07-17T07:49:24;19.60;99.90
9437;DHT22;4757;59.334;18.034;2022-07-17T07:51:51;19.70;99.90
9437;DHT22;4757;59.334;18.034;2022-07-17T07:54:30;19.90;99.90
9437;DHT22;4757;59.334;18.034;2022-07-17T07:56:57;20.00;99.90
9437;DHT22;4757;59.334;18.034;2022-07-17T07:59:25;20.00;99.90
9437;DHT22;4757;59.334;18.034;2022-07-17T08:01:53;20.20;99.90
9437;DHT22;4757;59.334;18.034;2022-07-17T08:04:20;20.20;99.90
9437;DHT22;4757;59.334;18.034;2022-07-17T08:06:47;20.30;99.90
9437;DHT22;4757;59.334;18.034;2022-07-17T08:09:14;20.30;99.90
9437;DHT22;4757;59.334;18.034;2022-07-17T08:11:44;20.50;99.90
9437;DHT22;4757;59.334;18.034;2022-07-17T08:14:11;20.50;99.90
9437;DHT22;4757;59.334;18.034;2022-07-17T08:16:43;20.50;99.90
9437;DHT22;4757;59.334;18.034;2022-07-17T08:19:10;20.70;99.90
9437;DHT22;4757;59.334;18.034;2022-07-17T08:21:37;20.60;99.90
9437;DHT22;4757;59.334;18.034;2022-07-17T08:24:05;20.50;99.90
9437;DHT22;4757;59.334;18.034;2022-07-17T08:26:32;20.50;99.90
9437;DHT22;4757;59.334;18.034;2022-07-17T08:28:59;20.50;99.90
9437;DHT22;4757;59.334;18.034;2022-07-17T08:31:27;20.60;99.90
9437;DHT22;4757;59.334;18.034;2022-07-17T08:33:55;20.40;99.90
9437;DHT22;4757;59.334;18.034;2022-07-17T08:36:22;20.10;99.90
9437;DHT22;4757;59.334;18.034;2022-07-17T08:38:49;20.80;99.90
9437;DHT22;4757;59.334;18.034;2022-07-17T08:41:16;20.90;99.90
9437;DHT22;4757;59.334;18.034;2022-07-17T08:43:44;20.90;99.90
9437;DHT22;4757;59.334;18.034;2022-07-17T08:46:14;20.70;99.90
9437;DHT22;4757;59.334;18.034;2022-07-17T08:48:46;20.80;99.90
9437;DHT22;4757;59.334;18.034;2022-07-17T08:51:16;21.10;99.90
9437;DHT22;4757;59.334;18.034;2022-07-17T08:53:44;20.90;99.90
9437;DHT22;4757;59.334;18.034;2022-07-17T08:56:11;20.60;99.90
9437;DHT22;4757;59.334;18.034;2022-07-17T08:58:39;20.60;99.90
9437;DHT22;4757;59.334;18.034;2022-07-17T09:01:08;20.70;99.90
9437;DHT22;4757;59.334;18.034;2022-07-17T09:03:36;20.40;99.90
9437;DHT22;4757;59.334;18.034;2022-07-17T09:06:18;20.80;99.90
9437;DHT22;4757;59.334;18.034;2022-07-17T09:08:45;20.90;99.90
9437;DHT22;4757;59.334;18.034;2022-07-17T09:11:13;21.10;99.90
9437;DHT22;4757;59.334;18.034;2022-07-17T09:13:45;21.60;99.90
9437;DHT22;4757;59.334;18.034;2022-07-17T09:16:14;21.40;99.90
9437;DHT22;4757;59.334;18.034;2022-07-17T09:18:52;21.30;99.90
9437;DHT22;4757;59.334;18.034;2022-07-17T09:21:25;21.10;99.90
9437;DHT22;4757;59.334;18.034;2022-07-17T09:23:59;21.70;99.90
9437;DHT22;4757;59.334;18.034;2022-07-17T09:26:26;21.80;99.90
9437;DHT22;4757;59.334;18.034;2022-07-17T09:28:55;22.00;99.90
9437;DHT22;4757;59.334;18.034;2022-07-17T09:31:30;21.30;99.90
9437;DHT22;4757;59.334;18.034;2022-07-17T09:34:01;21.30;99.90
9437;DHT22;4757;59.334;18.034;2022-07-17T09:36:28;21.30;99.90
9437;DHT22;4757;59.334;18.034;2022-07-17T09:38:58;21.20;99.90
9437;DHT22;4757;59.334;18.034;2022-07-17T09:41:26;21.50;99.90
9437;DHT22;4757;59.334;18.034;2022-07-17T09:44:00;21.40;99.90
9437;DHT22;4757;59.334;18.034;2022-07-17T09:46:29;21.40;99.90
9437;DHT22;4757;59.334;18.034;2022-07-17T09:49:00;21.50;99.90
9437;DHT22;4757;59.334;18.034;2022-07-17T09:51:30;21.60;99.90
9437;DHT22;4757;59.334;18.034;2022-07-17T09:54:00;21.40;99.90
9437;DHT22;4757;59.334;18.034;2022-07-17T09:56:30;21.30;99.90
9437;DHT22;4757;59.334;18.034;2022-07-17T10:01:30;21.40;99.90
9437;DHT22;4757;59.334;18.034;2022-07-17T10:04:01;21.70;99.90
9437;DHT22;4757;59.334;18.034;2022-07-17T10:06:28;22.00;99.90
9437;DHT22;4757;59.334;18.034;2022-07-17T10:08:57;22.30;99.90
9437;DHT22;4757;59.334;18.034;2022-07-17T10:11:28;22.30;99.90
9437;DHT22;4757;59.334;18.034;2022-07-17T10:14:03;22.10;99.90
9437;DHT22;4757;59.334;18.034;2022-07-17T10:16:34;22.10;99.90
9437;DHT22;4757;59.334;18.034;2022-07-17T10:19:20;21.80;99.90
9437;DHT22;4757;59.334;18.034;2022-07-17T10:21:58;21.70;99.90
9437;DHT22;4757;59.334;18.034;2022-07-17T10:24:29;21.70;99.90
9437;DHT22;4757;59.334;18.034;2022-07-17T10:26:57;22.10;99.90
9437;DHT22;4757;59.334;18.034;2022-07-17T10:29:38;22.40;99.90
9437;DHT22;4757;59.334;18.034;2022-07-17T10:32:17;22.30;99.90
9437;DHT22;4757;59.334;18.034;2022-07-17T10:34:59;22.20;99.90
9437;DHT22;4757;59.334;18.034;2022-07-17T10:40:10;22.30;99.90
9437;DHT22;4757;59.334;18.034;2022-07-17T10:45:13;22.40;99.90
9437;DHT22;4757;59.334;18.034;2022-07-17T10:47:53;22.00;99.90
9437;DHT22;4757;59.334;18.034;2022-07-17T10:50:24;22.30;99.90
9437;DHT22;4757;59.334;18.034;2022-07-17T10:55:41;21.60;99.90
9437;DHT22;4757;59.334;18.034;2022-07-17T10:58:26;21.20;99.90
9437;DHT22;4757;59.334;18.034;2022-07-17T11:03:40;21.40;99.90
9437;DHT22;4757;59.334;18.034;2022-07-17T11:06:09;21.80;99.90
9437;DHT22;4757;59.334;18.034;2022-07-17T11:09:00;21.70;99.90
9437;DHT22;4757;59.334;18.034;2022-07-17T11:11:48;22.00;99.90
9437;DHT22;4757;59.334;18.034;2022-07-17T11:14:24;22.10;99.90
9437;DHT22;4757;59.334;18.034;2022-07-17T11:16:58;22.10;99.90
9437;DHT22;4757;59.334;18.034;2022-07-17T11:19:38;22.30;99.90
9437;DHT22;4757;59.334;18.034;2022-07-17T11:22:08;22.10;99.90
9437;DHT22;4757;59.334;18.034;2022-07-17T11:24:47;21.90;99.90
9437;DHT22;4757;59.334;18.034;2022-07-17T11:27:24;21.90;99.90
9437;DHT22;4757;59.334;18.034;2022-07-17T11:29:53;22.00;99.90
9437;DHT22;4757;59.334;18.034;2022-07-17T11:32:21;22.00;99.90
9437;DHT22;4757;59.334;18.034;2022-07-17T11:34:48;21.90;99.90
9437;DHT22;4757;59.334;18.034;2022-07-17T11:37:17;21.70;99.90
9437;DHT22;4757;59.334;18.034;2022-07-17T11:39:48;21.30;99.90
9437;DHT22;4757;59.334;18.034;2022-07-17T11:42:16;21.30;99.90
9437;DHT22;4757;59.334;18.034;2022-07-17T11:44:50;21.80;99.90
9437;DHT22;4757;59.334;18.034;2022-07-17T11:47:26;22.20;99.90
9437;DHT22;4757;59.334;18.034;2022-07-17T11:50:05;22.60;99.90
9437;DHT22;4757;59.334;18.034;2022-07-17T11:52:45;22.60;99.90
9437;DHT22;4757;59.334;18.034;2022-07-17T11:55:12;22.00;99.90
9437;DHT22;4757;59.334;18.034;2022-07-17T11:57:45;21.90;99.90
9437;DHT22;4757;59.334;18.034;2022-07-17T12:00:19;21.50;99.90
9437;DHT22;4757;59.334;18.034;2022-07-17T12:02:57;21.20;99.90
9437;DHT22;4757;59.334;18.034;2022-07-17T12:05:27;21.30;99.90
9437;DHT22;4757;59.334;18.034;2022-07-17T12:07:55;21.70;99.90
9437;DHT22;4757;59.334;18.034;2022-07-17T12:10:24;22.00;99.90
9437;DHT22;4757;59.334;18.034;2022-07-17T12:15:48;22.30;99.90
9437;DHT22;4757;59.334;18.034;2022-07-17T12:20:53;22.20;99.90
9437;DHT22;4757;59.334;18.034;2022-07-17T12:23:32;21.90;99.90
9437;DHT22;4757;59.334;18.034;2022-07-17T12:26:23;22.00;99.90
9437;DHT22;4757;59.334;18.034;2022-07-17T12:28:51;22.10;99.90
9437;DHT22;4757;59.334;18.034;2022-07-17T12:31:26;22.60;99.90
9437;DHT22;4757;59.334;18.034;2022-07-17T12:33:54;22.90;99.90
9437;DHT22;4757;59.334;18.034;2022-07-17T12:36:22;22.90;99.90
9437;DHT22;4757;59.334;18.034;2022-07-17T12:38:51;23.10;99.90
9437;DHT22;4757;59.334;18.034;2022-07-17T12:41:18;22.90;99.90
9437;DHT22;4757;59.334;18.034;2022-07-17T12:43:47;22.80;99.90
9437;DHT22;4757;59.334;18.034;2022-07-17T12:46:14;22.90;99.90
9437;DHT22;4757;59.334;18.034;2022-07-17T12:48:44;23.10;99.90
9437;DHT22;4757;59.334;18.034;2022-07-17T12:51:13;23.30;99.90
9437;DHT22;4757;59.334;18.034;2022-07-17T12:53:42;23.70;99.90
9437;DHT22;4757;59.334;18.034;2022-07-17T12:56:10;23.90;99.90
9437;DHT22;4757;59.334;18.034;2022-07-17T12:58:38;24.10;99.90
9437;DHT22;4757;59.334;18.034;2022-07-17T13:01:05;24.20;99.90
9437;DHT22;4757;59.334;18.034;2022-07-17T13:03:33;24.20;99.90
9437;DHT22;4757;59.334;18.034;2022-07-17T13:06:01;24.10;99.90
9437;DHT22;4757;59.334;18.034;2022-07-17T13:08:30;24.00;99.90
9437;DHT22;4757;59.334;18.034;2022-07-17T13:10:57;24.00;99.90
9437;DHT22;4757;59.334;18.034;2022-07-17T13:13:27;23.40;99.90
9437;DHT22;4757;59.334;18.034;2022-07-17T13:15:57;23.30;99.90
9437;DHT22;4757;59.334;18.034;2022-07-17T13:18:25;23.20;99.90
9437;DHT22;4757;59.334;18.034;2022-07-17T13:20:52;23.20;99.90
9437;DHT22;4757;59.334;18.034;2022-07-17T13:23:27;23.20;99.90
9437;DHT22;4757;59.334;18.034;2022-07-17T13:25:55;23.50;99.90
9437;DHT22;4757;59.334;18.034;2022-07-17T13:28:22;23.70;99.90
9437;DHT22;4757;59.334;18.034;2022-07-17T13:30:49;23.80;99.90
9437;DHT22;4757;59.334;18.034;2022-07-17T13:33:16;24.00;99.80
9437;DHT22;4757;59.334;18.034;2022-07-17T13:35:43;23.70;99.90
9437;DHT22;4757;59.334;18.034;2022-07-17T13:38:11;23.50;99.90
9437;DHT22;4757;59.334;18.034;2022-07-17T13:40:38;23.40;99.90
9437;DHT22;4757;59.334;18.034;2022-07-17T13:43:06;23.30;99.90
9437;DHT22;4757;59.334;18.034;2022-07-17T13:45:33;23.20;99.90
9437;DHT22;4757;59.334;18.034;2022-07-17T13:48:01;23.10;99.90
9437;DHT22;4757;59.334;18.034;2022-07-17T13:50:28;22.80;99.90
9437;DHT22;4757;59.334;18.034;2022-07-17T13:52:55;22.70;99.90
9437;DHT22;4757;59.334;18.034;2022-07-17T13:55:22;22.70;99.90
9437;DHT22;4757;59.334;18.034;2022-07-17T13:58:10;22.90;99.90
9437;DHT22;4757;59.334;18.034;2022-07-17T14:00:40;22.90;99.90
9437;DHT22;4757;59.334;18.034;2022-07-17T14:03:07;22.70;99.90
9437;DHT22;4757;59.334;18.034;2022-07-17T14:05:34;22.60;99.90
9437;DHT22;4757;59.334;18.034;2022-07-17T14:08:01;22.90;99.90
9437;DHT22;4757;59.334;18.034;2022-07-17T14:10:29;23.40;99.90
9437;DHT22;4757;59.334;18.034;2022-07-17T14:12:58;23.20;99.90
9437;DHT22;4757;59.334;18.034;2022-07-17T14:15:25;23.90;99.90
9437;DHT22;4757;59.334;18.034;2022-07-17T14:17:53;24.10;99.70
9437;DHT22;4757;59.334;18.034;2022-07-17T14:20:20;23.80;99.60
9437;DHT22;4757;59.334;18.034;2022-07-17T14:22:48;23.80;99.80
9437;DHT22;4757;59.334;18.034;2022-07-17T14:25:15;23.70;99.50
9437;DHT22;4757;59.334;18.034;2022-07-17T14:27:43;23.40;99.70
9437;DHT22;4757;59.334;18.034;2022-07-17T14:30:10;23.50;99.90
9437;DHT22;4757;59.334;18.034;2022-07-17T14:32:38;23.70;99.70
9437;DHT22;4757;59.334;18.034;2022-07-17T14:35:06;23.40;99.60
9437;DHT22;4757;59.334;18.034;2022-07-17T14:37:33;23.40;99.60
9437;DHT22;4757;59.334;18.034;2022-07-17T14:40:09;23.50;99.20
9437;DHT22;4757;59.334;18.034;2022-07-17T14:42:36;23.70;99.30
9437;DHT22;4757;59.334;18.034;2022-07-17T14:45:03;23.90;99.10
9437;DHT22;4757;59.334;18.034;2022-07-17T14:47:31;24.00;98.90
9437;DHT22;4757;59.334;18.034;2022-07-17T14:49:58;24.20;99.00
9437;DHT22;4757;59.334;18.034;2022-07-17T14:52:25;24.00;98.40
9437;DHT22;4757;59.334;18.034;2022-07-17T14:54:52;23.70;98.70
9437;DHT22;4757;59.334;18.034;2022-07-17T14:57:19;23.80;99.10
9437;DHT22;4757;59.334;18.034;2022-07-17T14:59:46;24.10;98.90
9437;DHT22;4757;59.334;18.034;2022-07-17T15:02:14;23.90;99.20
9437;DHT22;4757;59.334;18.034;2022-07-17T15:04:44;23.50;98.70
9437;DHT22;4757;59.334;18.034;2022-07-17T15:07:12;23.50;99.10
9437;DHT22;4757;59.334;18.034;2022-07-17T15:09:39;23.30;99.30
9437;DHT22;4757;59.334;18.034;2022-07-17T15:12:06;23.30;99.90
9437;DHT22;4757;59.334;18.034;2022-07-17T15:14:33;23.10;99.90
9437;DHT22;4757;59.334;18.034;2022-07-17T15:17:02;23.30;99.90
9437;DHT22;4757;59.334;18.034;2022-07-17T15:19:30;23.40;99.90
9437;DHT22;4757;59.334;18.034;2022-07-17T15:21:57;23.10;99.90
9437;DHT22;4757;59.334;18.034;2022-07-17T15:24:25;23.10;99.90
9437;DHT22;4757;59.334;18.034;2022-07-17T15:26:55;23.10;99.90
9437;DHT22;4757;59.334;18.034;2022-07-17T15:29:23;23.10;99.90
9437;DHT22;4757;59.334;18.034;2022-07-17T15:31:50;23.20;99.90
9437;DHT22;4757;59.334;18.034;2022-07-17T15:34:17;23.20;99.90
9437;DHT22;4757;59.334;18.034;2022-07-17T15:36:45;23.20;99.90
9437;DHT22;4757;59.334;18.034;2022-07-17T15:39:15;23.30;99.90
9437;DHT22;4757;59.334;18.034;2022-07-17T15:41:51;23.60;99.90
9437;DHT22;4757;59.334;18.034;2022-07-17T15:44:22;23.70;99.80
9437;DHT22;4757;59.334;18.034;2022-07-17T15:46:51;23.80;99.50
9437;DHT22;4757;59.334;18.034;2022-07-17T15:49:19;23.70;99.60
9437;DHT22;4757;59.334;18.034;2022-07-17T15:51:49;23.20;99.90
9437;DHT22;4757;59.334;18.034;2022-07-17T15:54:16;23.00;99.90
9437;DHT22;4757;59.334;18.034;2022-07-17T15:56:45;22.90;99.90
9437;DHT22;4757;59.334;18.034;2022-07-17T15:59:15;22.70;99.90
9437;DHT22;4757;59.334;18.034;2022-07-17T16:01:43;22.70;99.90
9437;DHT22;4757;59.334;18.034;2022-07-17T16:04:11;23.00;99.90
9437;DHT22;4757;59.334;18.034;2022-07-17T16:06:38;23.30;99.90
9437;DHT22;4757;59.334;18.034;2022-07-17T16:09:10;23.30;99.90
9437;DHT22;4757;59.334;18.034;2022-07-17T16:11:38;23.40;99.90
9437;DHT22;4757;59.334;18.034;2022-07-17T16:14:05;23.40;99.90
9437;DHT22;4757;59.334;18.034;2022-07-17T16:16:33;23.00;99.90